Time;durP1;ratioP1;P1;durP2;ratioP2;P2;SDS_P1;SDS_P2;PMS_P1;PMS_P2;Temp;Humidity;BMP_temperature;BMP_pressure;BME280_temperature;BME280_humidity;BME280_pressure;Samples;Min_cycle;Max_cycle;Signal;HPM_P1;HPM_P2
2021/01/25 00:00:10;;;;;;;10.57;6.07;;;2.60;55.90;;;;;;5011805;28;20464;-74
2021/01/25 00:02:35;;;;;;;8.82;5.95;;;2.60;55.40;;;;;;5013212;28;20916;-72
2021/01/25 00:05:01;;;;;;;9.33;6.17;;;2.50;55.80;;;;;;5012691;28;20384;-72
2021/01/25 00:07:26;;;;;;;9.07;5.83;;;2.50;56.00;;;;;;5011544;28;20813;-71
2021/01/25 00:09:52;;;;;;;7.93;6.30;;;2.50;56.40;;;;;;5009033;28;20447;-73
2021/01/25 00:12:17;;;;;;;10.50;6.60;;;2.50;56.80;;;;;;5011385;28;20846;-72
2021/01/25 00:14:43;;;;;;;11.38;6.60;;;2.60;56.70;;;;;;5010428;28;20751;-73
2021/01/25 00:17:08;;;;;;;7.18;5.50;;;2.50;55.10;;;;;;5011501;28;20377;-72
2021/01/25 00:19:34;;;;;;;8.50;6.10;;;2.50;55.70;;;;;;5006435;28;20478;-73
2021/01/25 00:21:59;;;;;;;8.65;6.30;;;2.70;55.40;;;;;;5010773;28;20938;-72
2021/01/25 00:24:25;;;;;;;8.27;6.10;;;2.70;55.60;;;;;;5011135;28;20492;-72
2021/01/25 00:26:50;;;;;;;12.93;6.30;;;2.60;55.80;;;;;;5001268;28;20399;-73
2021/01/25 00:29:16;;;;;;;9.57;6.57;;;2.60;56.80;;;;;;5004175;28;20523;-71
2021/01/25 00:31:42;;;;;;;9.70;6.00;;;2.60;56.60;;;;;;5010981;28;20407;-73
2021/01/25 00:34:07;;;;;;;8.50;6.35;;;2.70;55.70;;;;;;5010169;28;20412;-72
2021/01/25 00:36:33;;;;;;;9.50;6.60;;;2.80;55.20;;;;;;4998966;28;20402;-71
2021/01/25 00:38:58;;;;;;;8.85;6.68;;;2.80;56.30;;;;;;4996875;28;20482;-73
2021/01/25 00:41:24;;;;;;;8.73;6.27;;;2.80;55.40;;;;;;5010229;28;20435;-72
2021/01/25 00:43:49;;;;;;;10.10;6.60;;;2.90;54.90;;;;;;5011072;28;20886;-71
2021/01/25 00:46:15;;;;;;;10.73;6.70;;;2.90;55.20;;;;;;5011102;28;20785;-72
2021/01/25 00:48:40;;;;;;;9.70;6.30;;;2.90;55.20;;;;;;5010007;28;20415;-72
2021/01/25 00:51:06;;;;;;;9.13;6.90;;;2.90;54.60;;;;;;5010682;28;20898;-72
2021/01/25 00:53:32;;;;;;;11.02;6.38;;;2.90;55.60;;;;;;5010221;28;20890;-71
2021/01/25 00:55:57;;;;;;;10.33;6.50;;;2.90;56.80;;;;;;5010466;28;20392;-72
2021/01/25 00:58:23;;;;;;;11.47;6.67;;;3.00;54.30;;;;;;5010726;28;20385;-72
2021/01/25 01:00:48;;;;;;;9.57;6.30;;;3.00;54.00;;;;;;5010628;28;20409;-73
2021/01/25 01:03:14;;;;;;;9.32;6.30;;;3.00;53.70;;;;;;5010646;28;20942;-72
2021/01/25 01:05:39;;;;;;;11.05;6.35;;;3.00;53.80;;;;;;5010326;28;20409;-73
2021/01/25 01:08:05;;;;;;;10.23;7.03;;;3.00;53.50;;;;;;5009756;28;20470;-73
2021/01/25 01:10:31;;;;;;;13.37;6.50;;;3.00;53.60;;;;;;5007704;28;20397;-71
2021/01/25 01:12:56;;;;;;;9.93;6.87;;;3.00;53.40;;;;;;5009327;28;20409;-73
2021/01/25 01:15:22;;;;;;;8.63;6.47;;;2.90;54.90;;;;;;5010666;28;20389;-73
2021/01/25 01:17:47;;;;;;;9.25;6.30;;;3.00;55.30;;;;;;5010081;28;20897;-71
2021/01/25 01:20:13;;;;;;;11.23;7.07;;;3.10;53.10;;;;;;5010194;28;20810;-73
2021/01/25 01:22:39;;;;;;;10.13;6.77;;;3.00;54.90;;;;;;5010682;28;20439;-72
2021/01/25 01:25:07;;;;;;;14.73;7.07;;;3.00;54.90;;;;;;5010711;28;20786;-75
2021/01/25 01:27:33;;;;;;;10.80;6.87;;;2.90;56.10;;;;;;5009489;28;20758;-72
2021/01/25 01:29:59;;;;;;;10.43;6.63;;;3.00;56.00;;;;;;5010030;28;20882;-73
2021/01/25 01:32:25;;;;;;;9.95;7.43;;;3.00;54.90;;;;;;5010264;28;20471;-73
2021/01/25 01:34:50;;;;;;;9.52;6.90;;;3.00;54.10;;;;;;5011261;28;20420;-72
2021/01/25 01:37:16;;;;;;;8.88;6.35;;;3.10;55.70;;;;;;5010669;28;20392;-71
2021/01/25 01:39:42;;;;;;;10.53;6.90;;;3.00;54.70;;;;;;4993140;28;20406;-72
2021/01/25 01:42:17;;;;;;;10.05;6.72;;;3.00;55.40;;;;;;5004247;28;20400;-73
2021/01/25 01:44:43;;;;;;;9.88;6.50;;;3.00;54.30;;;;;;5014926;28;20384;-72
2021/01/25 01:47:11;;;;;;;9.30;6.63;;;2.90;55.40;;;;;;5014927;28;20516;-71
2021/01/25 01:49:38;;;;;;;11.02;7.00;;;2.90;55.50;;;;;;5014675;28;20409;-71
2021/01/25 01:52:03;;;;;;;9.80;6.65;;;2.90;56.70;;;;;;5014623;28;20475;-71
2021/01/25 01:54:30;;;;;;;13.40;7.60;;;3.00;55.30;;;;;;5006918;28;20841;-71
2021/01/25 01:56:56;;;;;;;12.07;7.03;;;3.00;55.70;;;;;;4994456;28;20394;-73
2021/01/25 01:59:21;;;;;;;10.80;6.33;;;2.90;55.70;;;;;;4994600;28;20780;-72
2021/01/25 02:01:47;;;;;;;8.23;6.22;;;2.90;56.20;;;;;;4994358;28;20398;-72
2021/01/25 02:04:13;;;;;;;9.50;7.00;;;3.00;55.90;;;;;;4996641;28;20440;-73
2021/01/25 02:06:40;;;;;;;8.98;6.20;;;3.10;54.20;;;;;;5013730;28;20739;-71
2021/01/25 02:09:06;;;;;;;11.30;6.50;;;2.90;55.10;;;;;;5013001;28;20412;-72
2021/01/25 02:11:33;;;;;;;12.23;6.63;;;2.80;56.60;;;;;;4998634;28;20488;-71
2021/01/25 02:14:01;;;;;;;8.25;6.45;;;2.70;57.60;;;;;;5012495;28;20790;-72
2021/01/25 02:16:26;;;;;;;9.75;6.30;;;2.70;60.00;;;;;;5013919;28;20396;-73
2021/01/25 02:18:52;;;;;;;11.38;6.40;;;2.80;57.20;;;;;;5013105;28;20732;-72
2021/01/25 02:21:19;;;;;;;9.37;6.60;;;2.70;58.60;;;;;;5013571;28;20475;-73
2021/01/25 02:23:55;;;;;;;10.57;6.75;;;2.80;58.30;;;;;;4995947;28;20406;-72
2021/01/25 02:26:34;;;;;;;10.95;6.30;;;2.60;59.40;;;;;;5009638;28;20401;-73
2021/01/25 02:29:00;;;;;;;12.30;7.03;;;2.70;58.40;;;;;;5014288;28;20397;-71
2021/01/25 02:31:27;;;;;;;10.18;7.00;;;2.70;59.10;;;;;;5014408;28;20397;-72
2021/01/25 02:33:55;;;;;;;11.52;6.90;;;2.80;60.20;;;;;;5014222;28;20444;-71
2021/01/25 02:36:23;;;;;;;8.95;5.97;;;2.70;60.00;;;;;;5014055;28;20421;-71
2021/01/25 02:38:51;;;;;;;10.07;6.47;;;2.90;57.80;;;;;;5011678;28;20937;-71
2021/01/25 02:41:21;;;;;;;8.68;5.72;;;2.80;58.40;;;;;;4995005;28;20406;-72
2021/01/25 02:43:47;;;;;;;8.93;5.90;;;2.80;57.10;;;;;;4994971;28;20820;-71
2021/01/25 02:46:13;;;;;;;8.63;6.10;;;2.90;58.30;;;;;;4999677;28;20766;-72
2021/01/25 02:48:39;;;;;;;8.48;5.65;;;2.90;57.70;;;;;;5012947;28;20404;-72
2021/01/25 02:51:05;;;;;;;11.60;6.13;;;3.10;56.40;;;;;;5011318;28;20801;-72
2021/01/25 02:53:30;;;;;;;8.37;6.27;;;3.00;57.10;;;;;;5014135;28;20409;-70
2021/01/25 02:55:57;;;;;;;8.90;5.95;;;3.00;57.80;;;;;;5013761;28;20419;-72
2021/01/25 02:58:23;;;;;;;10.02;6.07;;;2.80;58.00;;;;;;5013475;28;20397;-72
2021/01/25 03:00:49;;;;;;;7.32;5.80;;;2.80;59.40;;;;;;5013746;28;20428;-73
2021/01/25 03:03:22;;;;;;;9.80;5.47;;;2.70;59.10;;;;;;5013889;28;20480;-71
2021/01/25 03:05:48;;;;;;;7.20;6.20;;;2.70;60.60;;;;;;5013858;28;20404;-71
2021/01/25 03:08:14;;;;;;;8.80;5.47;;;2.70;59.70;;;;;;5013293;28;20491;-71
2021/01/25 03:10:39;;;;;;;8.07;5.90;;;2.60;61.60;;;;;;5011593;28;20397;-73
2021/01/25 03:13:06;;;;;;;7.43;5.33;;;2.50;62.50;;;;;;5012458;28;20408;-74
2021/01/25 03:15:36;;;;;;;9.98;5.80;;;2.40;62.80;;;;;;5012300;28;20735;-72
2021/01/25 03:18:02;;;;;;;7.30;5.50;;;2.40;62.70;;;;;;5012277;28;20423;-72
2021/01/25 03:20:28;;;;;;;6.78;5.30;;;2.30;63.80;;;;;;5012349;28;20415;-72
2021/01/25 03:22:53;;;;;;;9.18;5.90;;;2.40;65.00;;;;;;5012102;28;20392;-72
2021/01/25 03:25:19;;;;;;;7.93;5.60;;;2.30;63.70;;;;;;5011865;28;20461;-72
2021/01/25 03:27:45;;;;;;;9.40;6.20;;;2.30;64.60;;;;;;5012314;28;20451;-71
2021/01/25 03:30:12;;;;;;;7.47;5.47;;;2.20;66.60;;;;;;5012064;28;20397;-72
2021/01/25 03:32:39;;;;;;;6.60;5.40;;;2.20;65.30;;;;;;5007004;28;20459;-72
2021/01/25 03:35:06;;;;;;;6.90;5.72;;;2.20;65.70;;;;;;5012159;28;20785;-72
2021/01/25 03:37:31;;;;;;;8.45;5.72;;;2.20;65.50;;;;;;5011748;28;20432;-73
2021/01/25 03:39:58;;;;;;;9.82;5.32;;;2.10;66.00;;;;;;5011113;28;20400;-73
2021/01/25 03:42:24;;;;;;;5.47;4.90;;;2.00;67.80;;;;;;5011975;28;20875;-73
2021/01/25 03:44:49;;;;;;;7.97;5.55;;;1.90;68.10;;;;;;5011843;28;20535;-71
2021/01/25 03:47:15;;;;;;;6.90;4.90;;;1.90;69.00;;;;;;5011369;28;20487;-71
2021/01/25 03:49:41;;;;;;;10.90;6.80;;;1.80;69.80;;;;;;5011803;28;20451;-71
2021/01/25 03:52:06;;;;;;;9.67;6.00;;;1.80;71.10;;;;;;5010939;28;20414;-71
2021/01/25 03:54:32;;;;;;;7.07;5.43;;;1.80;72.00;;;;;;5011630;28;20399;-71
2021/01/25 03:56:57;;;;;;;8.73;6.07;;;1.80;71.30;;;;;;5011204;28;20393;-72
2021/01/25 03:59:23;;;;;;;8.30;6.43;;;1.90;71.80;;;;;;5011517;28;20873;-72
2021/01/25 04:01:49;;;;;;;7.23;5.50;;;1.90;70.50;;;;;;5011368;28;20905;-72
2021/01/25 04:04:15;;;;;;;6.85;5.80;;;1.90;70.40;;;;;;5011225;28;20484;-72
2021/01/25 04:06:40;;;;;;;6.72;5.30;;;2.00;70.20;;;;;;5011549;28;20496;-72
2021/01/25 04:09:06;;;;;;;8.27;5.40;;;2.20;68.50;;;;;;5010807;28;20479;-72
2021/01/25 04:11:32;;;;;;;7.23;5.90;;;2.10;68.60;;;;;;5005932;28;20477;-75
2021/01/25 04:13:58;;;;;;;6.25;5.35;;;2.10;69.50;;;;;;5013205;28;20809;-72
2021/01/25 04:16:23;;;;;;;7.53;5.40;;;2.00;70.40;;;;;;5014394;28;20472;-73
2021/01/25 04:18:49;;;;;;;9.53;5.93;;;2.10;70.50;;;;;;5014133;28;20384;-73
2021/01/25 04:21:14;;;;;;;9.38;5.80;;;2.10;69.70;;;;;;5013772;28;20845;-71
2021/01/25 04:23:40;;;;;;;7.13;5.75;;;2.10;69.20;;;;;;5013987;28;20396;-71
2021/01/25 04:26:05;;;;;;;8.23;6.03;;;2.10;69.80;;;;;;5012906;28;20396;-71
2021/01/25 04:28:31;;;;;;;7.47;5.63;;;2.20;68.50;;;;;;5013239;28;20558;-73
2021/01/25 04:30:57;;;;;;;7.77;6.00;;;2.20;68.40;;;;;;5013109;28;20404;-72
2021/01/25 04:33:22;;;;;;;7.70;5.50;;;2.30;67.30;;;;;;5012881;28;20811;-73
2021/01/25 04:35:48;;;;;;;9.40;5.78;;;2.30;68.40;;;;;;5012667;28;20396;-72
2021/01/25 04:38:13;;;;;;;8.40;5.70;;;2.30;67.00;;;;;;5012389;28;20447;-73
2021/01/25 04:40:39;;;;;;;8.13;6.27;;;2.20;68.10;;;;;;5013204;28;20401;-72
2021/01/25 04:43:05;;;;;;;9.30;6.20;;;2.10;69.70;;;;;;5013167;28;20400;-72
2021/01/25 04:45:31;;;;;;;6.87;5.90;;;2.20;69.30;;;;;;5013300;28;20932;-73
2021/01/25 04:47:58;;;;;;;8.20;6.75;;;2.20;69.10;;;;;;5012150;28;20843;-71
2021/01/25 04:50:24;;;;;;;8.02;6.00;;;2.10;69.70;;;;;;5010760;28;20389;-73
2021/01/25 04:52:50;;;;;;;6.85;5.55;;;2.60;68.00;;;;;;5010246;28;20449;-72
2021/01/25 04:55:16;;;;;;;9.30;6.10;;;2.60;65.10;;;;;;5010106;28;20393;-72
2021/01/25 04:57:44;;;;;;;7.97;6.25;;;2.50;65.70;;;;;;5010377;28;20408;-72
2021/01/25 05:00:11;;;;;;;7.53;5.60;;;2.50;65.70;;;;;;5010726;28;20750;-72
2021/01/25 05:02:38;;;;;;;9.90;7.03;;;2.30;67.60;;;;;;5010407;28;20875;-72
2021/01/25 05:05:05;;;;;;;7.28;6.38;;;2.30;68.60;;;;;;5009397;28;20405;-73
2021/01/25 05:07:31;;;;;;;8.13;6.20;;;2.40;69.40;;;;;;5009977;28;20388;-72
2021/01/25 05:09:56;;;;;;;8.30;6.88;;;2.40;69.10;;;;;;5010059;28;20396;-73
2021/01/25 05:12:22;;;;;;;9.45;6.68;;;2.40;69.70;;;;;;5010089;28;20422;-73
2021/01/25 05:14:47;;;;;;;10.48;7.38;;;2.30;70.20;;;;;;5009960;28;20495;-71
2021/01/25 05:17:14;;;;;;;14.23;7.83;;;2.30;70.70;;;;;;5010516;28;20869;-73
2021/01/25 05:19:45;;;;;;;8.45;6.82;;;2.30;71.00;;;;;;5009599;28;20743;-72
2021/01/25 05:22:19;;;;;;;9.60;6.70;;;2.30;71.80;;;;;;5010315;28;20389;-73
2021/01/25 05:24:54;;;;;;;9.40;6.80;;;2.40;72.30;;;;;;5009962;28;20850;-73
2021/01/25 05:27:24;;;;;;;9.10;7.03;;;2.40;71.80;;;;;;5009937;28;20389;-72
2021/01/25 05:29:50;;;;;;;10.65;7.50;;;2.50;72.20;;;;;;5010004;28;20520;-72
2021/01/25 05:32:19;;;;;;;10.55;7.40;;;2.40;72.20;;;;;;5010239;28;20832;-73
2021/01/25 05:34:48;;;;;;;10.60;7.40;;;2.50;71.50;;;;;;5001324;28;20398;-72
2021/01/25 05:37:18;;;;;;;11.95;8.48;;;2.40;70.60;;;;;;5010463;28;20595;-73
2021/01/25 05:39:46;;;;;;;10.88;8.45;;;2.40;71.90;;;;;;5009725;28;20396;-71
2021/01/25 05:42:12;;;;;;;11.57;7.50;;;2.30;73.20;;;;;;5010612;28;20438;-73
2021/01/25 05:44:38;;;;;;;14.20;7.55;;;2.30;73.50;;;;;;5010646;28;20743;-72
2021/01/25 05:47:06;;;;;;;11.18;7.10;;;2.40;74.60;;;;;;5011079;28;20412;-72
2021/01/25 05:49:32;;;;;;;7.85;6.57;;;2.50;73.70;;;;;;5008512;28;20401;-73
2021/01/25 05:51:57;;;;;;;11.38;7.45;;;2.70;72.10;;;;;;4993908;28;20404;-73
2021/01/25 05:54:24;;;;;;;10.10;7.80;;;2.80;70.20;;;;;;5009893;28;20408;-72
2021/01/25 05:56:50;;;;;;;8.40;7.10;;;2.80;69.30;;;;;;5001486;28;20479;-72
2021/01/25 05:59:16;;;;;;;10.93;7.88;;;2.80;69.80;;;;;;4990114;28;20394;-74
2021/01/25 06:01:43;;;;;;;8.05;6.60;;;2.90;69.20;;;;;;4992361;28;20386;-73
2021/01/25 06:04:16;;;;;;;9.30;7.30;;;3.00;68.80;;;;;;5009882;28;20874;-73
2021/01/25 06:06:48;;;;;;;13.25;7.80;;;3.20;63.50;;;;;;5009359;28;20871;-72
2021/01/25 06:09:22;;;;;;;9.57;7.80;;;3.10;64.20;;;;;;5008406;28;20759;-72
2021/01/25 06:11:48;;;;;;;11.63;7.32;;;3.10;65.20;;;;;;5009806;28;20835;-74
2021/01/25 06:14:29;;;;;;;8.97;7.30;;;3.10;64.90;;;;;;4998218;28;20410;-73
2021/01/25 06:16:56;;;;;;;12.75;7.82;;;3.10;65.30;;;;;;4999968;28;20400;-72
2021/01/25 06:19:25;;;;;;;12.80;8.00;;;3.00;65.70;;;;;;5009775;28;20728;-73
2021/01/25 06:21:51;;;;;;;10.88;7.72;;;3.10;65.40;;;;;;5009017;28;20393;-73
2021/01/25 06:24:19;;;;;;;14.30;8.48;;;3.10;65.40;;;;;;5009937;28;20451;-74
2021/01/25 06:26:48;;;;;;;9.10;7.50;;;3.10;66.40;;;;;;5013161;28;20798;-72
2021/01/25 06:29:17;;;;;;;8.70;6.93;;;3.10;64.40;;;;;;5006366;28;20389;-71
2021/01/25 06:31:43;;;;;;;9.57;7.72;;;3.10;65.10;;;;;;5012963;28;20404;-73
2021/01/25 06:34:12;;;;;;;12.93;8.67;;;3.00;65.40;;;;;;5012261;28;20468;-72
2021/01/25 06:36:40;;;;;;;11.07;8.25;;;3.20;64.90;;;;;;5012378;28;20392;-73
2021/01/25 06:39:07;;;;;;;11.02;8.38;;;3.50;62.40;;;;;;5012154;28;20389;-72
2021/01/25 06:41:42;;;;;;;13.40;9.48;;;3.40;61.70;;;;;;5010676;28;20400;-73
2021/01/25 06:44:10;;;;;;;13.15;8.77;;;3.40;61.90;;;;;;5012689;28;20490;-72
2021/01/25 06:46:37;;;;;;;11.25;8.25;;;3.30;62.50;;;;;;4994508;28;20398;-72
2021/01/25 06:49:07;;;;;;;10.27;7.60;;;3.30;64.10;;;;;;5007230;28;20427;-71
2021/01/25 06:51:44;;;;;;;10.57;8.00;;;3.80;58.80;;;;;;4995571;28;20469;-71
2021/01/25 06:54:12;;;;;;;13.00;8.05;;;3.90;57.20;;;;;;4993212;28;20410;-70
2021/01/25 06:56:54;;;;;;;11.15;8.50;;;3.90;56.30;;;;;;5000173;28;20401;-72
2021/01/25 06:59:25;;;;;;;13.82;9.05;;;3.80;57.00;;;;;;4992761;28;20390;-72
2021/01/25 07:01:57;;;;;;;16.45;9.52;;;3.70;58.60;;;;;;5010315;28;20397;-72
2021/01/25 07:04:26;;;;;;;10.55;8.70;;;3.30;61.90;;;;;;5011532;28;20719;-72
2021/01/25 07:06:56;;;;;;;12.57;9.57;;;3.30;64.10;;;;;;5013809;28;20886;-72
2021/01/25 07:09:27;;;;;;;13.50;9.20;;;3.30;63.90;;;;;;5012259;28;20498;-73
2021/01/25 07:11:56;;;;;;;14.18;8.68;;;3.40;64.90;;;;;;4996970;28;20418;-72
2021/01/25 07:14:24;;;;;;;13.32;8.27;;;3.60;61.60;;;;;;4992738;28;20414;-71
2021/01/25 07:16:52;;;;;;;13.25;8.82;;;3.60;61.10;;;;;;5000631;28;20546;-71
2021/01/25 07:19:19;;;;;;;14.25;9.18;;;3.60;60.80;;;;;;5011590;28;20889;-72
2021/01/25 07:21:47;;;;;;;14.55;8.30;;;3.60;60.80;;;;;;4992352;28;20426;-71
2021/01/25 07:24:23;;;;;;;14.50;8.70;;;3.40;63.40;;;;;;5002135;28;20393;-77
2021/01/25 07:26:54;;;;;;;11.25;8.70;;;3.50;62.40;;;;;;5011457;28;20397;-78
2021/01/25 07:29:20;;;;;;;13.93;9.23;;;3.50;63.40;;;;;;5007947;28;20951;-74
2021/01/25 07:31:47;;;;;;;11.98;8.50;;;3.50;62.80;;;;;;5003460;28;20425;-78
2021/01/25 07:34:13;;;;;;;15.45;8.93;;;3.60;61.40;;;;;;5002918;28;20499;-73
2021/01/25 07:36:39;;;;;;;17.13;9.67;;;3.60;62.70;;;;;;5010912;28;21092;-73
2021/01/25 07:39:06;;;;;;;18.65;10.02;;;3.60;63.50;;;;;;5009686;28;20419;-73
2021/01/25 07:41:32;;;;;;;15.70;9.90;;;3.50;63.60;;;;;;5006694;28;20402;-73
2021/01/25 07:44:00;;;;;;;14.05;10.13;;;3.50;64.00;;;;;;5009211;28;20458;-73
2021/01/25 07:46:26;;;;;;;14.40;10.00;;;3.50;63.10;;;;;;5003169;28;20547;-74
2021/01/25 07:48:53;;;;;;;16.00;10.20;;;3.60;64.00;;;;;;5009467;28;20480;-74
2021/01/25 07:51:24;;;;;;;15.48;9.52;;;3.50;63.50;;;;;;5011044;28;20889;-76
2021/01/25 07:53:50;;;;;;;15.82;10.13;;;3.50;63.30;;;;;;5002982;28;20420;-74
2021/01/25 07:56:18;;;;;;;11.55;9.57;;;3.40;65.10;;;;;;5009018;28;20404;-75
2021/01/25 07:58:47;;;;;;;16.58;11.05;;;3.30;65.30;;;;;;5008765;28;20420;-76
2021/01/25 08:01:21;;;;;;;15.88;10.13;;;3.30;66.10;;;;;;5006305;28;20411;-75
2021/01/25 08:03:51;;;;;;;17.33;10.57;;;3.30;67.30;;;;;;5002213;28;20413;-74
2021/01/25 08:06:18;;;;;;;20.57;12.33;;;3.40;66.00;;;;;;5007565;28;20437;-75
2021/01/25 08:08:50;;;;;;;16.77;10.60;;;3.30;68.50;;;;;;5005751;28;20405;-74
2021/01/25 08:11:18;;;;;;;16.53;11.10;;;3.30;67.40;;;;;;5003742;28;20514;-74
2021/01/25 08:14:06;;;;;;;13.75;10.55;;;3.40;69.40;;;;;;5004061;28;20413;-76
2021/01/25 08:16:37;;;;;;;17.20;11.68;;;3.50;69.20;;;;;;5008599;28;20408;-74
2021/01/25 08:19:19;;;;;;;16.88;11.20;;;3.60;67.30;;;;;;5009572;28;20455;-75
2021/01/25 08:21:59;;;;;;;16.58;11.25;;;3.50;69.10;;;;;;5006899;28;20845;-77
2021/01/25 08:24:25;;;;;;;19.58;11.38;;;3.90;65.40;;;;;;5023579;28;20800;-76
2021/01/25 08:26:54;;;;;;;19.70;13.13;;;4.00;63.40;;;;;;4998120;28;20416;-75
2021/01/25 08:29:26;;;;;;;20.50;11.45;;;4.00;63.10;;;;;;5002287;28;20427;-75
2021/01/25 08:31:52;;;;;;;15.98;10.77;;;4.10;62.20;;;;;;4991671;28;20410;-76
2021/01/25 08:34:31;;;;;;;14.98;10.35;;;4.20;59.30;;;;;;4989986;28;20411;-75
2021/01/25 08:37:09;;;;;;;14.30;9.83;;;4.30;56.90;;;;;;5007935;28;20408;-75
2021/01/25 08:39:41;;;;;;;20.13;10.27;;;4.20;57.20;;;;;;5002780;28;20870;-74
2021/01/25 08:42:20;;;;;;;19.77;10.68;;;4.00;57.60;;;;;;5000936;28;20469;-74
2021/01/25 08:45:09;;;;;;;15.15;10.52;;;4.00;58.70;;;;;;4998568;28;20424;-75
2021/01/25 08:47:35;;;;;;;17.52;10.95;;;3.90;58.60;;;;;;5007097;28;20846;-79
2021/01/25 08:50:01;;;;;;;18.40;10.68;;;3.90;59.50;;;;;;5007740;28;20400;-76
2021/01/25 08:52:39;;;;;;;14.70;10.37;;;3.90;60.20;;;;;;5009680;28;20403;-80
2021/01/25 08:55:21;;;;;;;16.15;10.25;;;3.90;59.50;;;;;;5014143;28;20495;-77
2021/01/25 08:57:53;;;;;;;16.38;11.23;;;3.90;58.70;;;;;;5007708;28;20774;-75
2021/01/25 09:00:41;;;;;;;13.57;10.25;;;4.00;58.60;;;;;;5007664;28;20405;-76
2021/01/25 09:03:11;;;;;;;19.17;11.37;;;4.00;59.70;;;;;;4991750;28;20410;-77
2021/01/25 09:05:36;;;;;;;16.60;10.68;;;4.20;58.50;;;;;;5006242;28;20463;-76
2021/01/25 09:08:02;;;;;;;17.00;11.80;;;4.30;56.30;;;;;;5007303;28;20907;-78
2021/01/25 09:10:27;;;;;;;19.67;11.80;;;4.20;57.90;;;;;;5009811;28;20511;-73
2021/01/25 09:12:53;;;;;;;17.80;10.90;;;4.30;58.00;;;;;;5009112;28;20412;-74
2021/01/25 09:15:27;;;;;;;15.85;10.75;;;4.50;56.40;;;;;;5019242;28;20409;-75
2021/01/25 09:17:57;;;;;;;20.17;12.65;;;4.70;53.60;;;;;;5009903;28;20821;-76
2021/01/25 09:20:22;;;;;;;15.40;10.90;;;4.50;54.40;;;;;;5010175;28;20802;-76
2021/01/25 09:22:49;;;;;;;19.23;11.52;;;4.60;52.70;;;;;;5010828;28;20401;-77
2021/01/25 09:25:16;;;;;;;19.15;11.38;;;4.60;52.80;;;;;;5012435;28;20527;-75
2021/01/25 09:27:51;;;;;;;19.00;11.00;;;4.60;52.70;;;;;;5009020;28;20409;-77
2021/01/25 09:30:17;;;;;;;17.13;10.90;;;4.60;52.40;;;;;;5008685;28;20408;-76
2021/01/25 09:32:44;;;;;;;15.25;11.20;;;4.50;51.50;;;;;;4997467;28;20476;-76
2021/01/25 09:35:15;;;;;;;14.02;10.82;;;4.50;52.60;;;;;;5005008;28;20413;-75
2021/01/25 09:37:42;;;;;;;18.15;11.63;;;4.60;52.50;;;;;;5008693;28;20404;-74
2021/01/25 09:40:08;;;;;;;17.23;11.27;;;4.70;51.60;;;;;;5009927;28;20416;-79
2021/01/25 09:42:34;;;;;;;17.37;11.17;;;4.80;51.30;;;;;;5011777;28;20483;-77
2021/01/25 09:45:03;;;;;;;16.55;11.40;;;5.00;49.70;;;;;;5009911;28;20893;-76
2021/01/25 09:47:29;;;;;;;17.50;11.02;;;5.10;48.20;;;;;;5007785;28;20401;-77
2021/01/25 09:49:57;;;;;;;16.03;10.23;;;5.10;48.70;;;;;;5009012;28;20411;-74
2021/01/25 09:52:24;;;;;;;16.50;11.32;;;5.20;47.20;;;;;;5007339;28;20420;-74
2021/01/25 09:54:50;;;;;;;13.68;10.80;;;5.20;47.70;;;;;;5007594;28;20403;-74
2021/01/25 09:57:16;;;;;;;14.03;9.93;;;5.40;46.20;;;;;;5004592;28;20762;-75
2021/01/25 09:59:41;;;;;;;16.63;10.52;;;5.40;44.70;;;;;;5007480;28;20401;-74
2021/01/25 10:02:07;;;;;;;15.10;10.40;;;5.20;44.70;;;;;;5011230;28;20412;-74
2021/01/25 10:04:33;;;;;;;16.60;11.77;;;5.00;45.70;;;;;;5010695;28;20408;-74
2021/01/25 10:06:58;;;;;;;16.30;10.80;;;4.80;48.00;;;;;;5007239;28;20403;-75
2021/01/25 10:09:24;;;;;;;17.83;11.60;;;4.60;49.10;;;;;;5003876;28;20490;-75
2021/01/25 10:11:49;;;;;;;21.13;13.07;;;4.50;51.20;;;;;;5011526;28;20412;-73
2021/01/25 10:14:15;;;;;;;19.48;12.80;;;4.50;52.30;;;;;;5014654;28;20422;-74
2021/01/25 10:16:41;;;;;;;20.17;13.75;;;4.40;53.50;;;;;;5013769;28;20455;-73
2021/01/25 10:19:06;;;;;;;24.53;12.87;;;4.40;53.30;;;;;;5013968;28;20459;-74
2021/01/25 10:21:32;;;;;;;25.00;13.90;;;4.40;51.40;;;;;;5013470;28;20415;-75
2021/01/25 10:23:57;;;;;;;24.45;15.00;;;4.20;53.00;;;;;;5008095;28;20416;-73
2021/01/25 10:26:23;;;;;;;23.98;15.02;;;4.10;55.30;;;;;;5008402;28;20415;-74
2021/01/25 10:28:49;;;;;;;27.13;14.65;;;4.10;56.90;;;;;;5002562;28;20404;-73
2021/01/25 10:31:15;;;;;;;27.73;15.80;;;4.20;57.10;;;;;;5009821;28;20882;-73
2021/01/25 10:33:40;;;;;;;21.90;15.38;;;4.20;57.20;;;;;;5015176;28;20784;-73
2021/01/25 10:36:06;;;;;;;23.50;14.70;;;4.30;55.10;;;;;;5012434;28;20397;-72
2021/01/25 10:38:32;;;;;;;21.40;13.80;;;4.30;55.30;;;;;;5011357;28;20401;-73
2021/01/25 10:40:58;;;;;;;21.15;13.50;;;4.30;54.10;;;;;;5015171;28;20409;-73
2021/01/25 10:43:23;;;;;;;20.20;13.40;;;4.10;54.00;;;;;;5012541;28;20401;-74
2021/01/25 10:45:49;;;;;;;22.73;13.87;;;3.90;55.10;;;;;;5012173;28;20419;-72
2021/01/25 10:48:14;;;;;;;21.97;13.50;;;3.80;56.20;;;;;;5005070;28;20402;-72
2021/01/25 10:50:40;;;;;;;24.73;14.70;;;3.90;56.30;;;;;;5008807;28;20416;-73
2021/01/25 10:53:06;;;;;;;23.48;15.32;;;3.90;55.60;;;;;;5008044;28;20443;-74
2021/01/25 10:55:34;;;;;;;24.00;14.60;;;3.90;56.60;;;;;;5007813;28;20405;-74
2021/01/25 10:58:00;;;;;;;23.70;14.65;;;3.90;56.90;;;;;;4997478;28;20390;-74
2021/01/25 11:00:27;;;;;;;30.40;14.93;;;3.90;57.50;;;;;;5007777;28;20404;-75
2021/01/25 11:02:52;;;;;;;27.45;15.98;;;3.80;57.00;;;;;;5007341;28;20417;-71
2021/01/25 11:05:25;;;;;;;31.73;16.90;;;3.80;57.30;;;;;;5009560;28;20408;-73
2021/01/25 11:07:51;;;;;;;27.50;15.80;;;3.90;57.00;;;;;;5005093;28;20490;-71
2021/01/25 11:10:27;;;;;;;26.63;16.30;;;4.00;56.40;;;;;;5002855;28;20411;-73
2021/01/25 11:12:53;;;;;;;23.05;15.70;;;4.10;55.50;;;;;;4999264;28;20419;-73
2021/01/25 11:15:19;;;;;;;23.75;16.10;;;4.30;53.40;;;;;;5011672;28;20407;-73
2021/01/25 11:17:45;;;;;;;23.23;15.20;;;4.30;53.00;;;;;;5011481;28;20487;-73
2021/01/25 11:20:12;;;;;;;26.65;16.33;;;4.40;54.20;;;;;;5010135;28;20416;-73
2021/01/25 11:22:37;;;;;;;29.73;15.88;;;4.70;50.00;;;;;;5008503;28;20402;-72
2021/01/25 11:25:04;;;;;;;28.40;14.97;;;4.80;50.00;;;;;;5008788;28;20921;-72
2021/01/25 11:27:29;;;;;;;29.15;15.73;;;5.10;49.80;;;;;;4997331;28;20418;-73
2021/01/25 11:29:55;;;;;;;26.90;15.67;;;5.20;45.70;;;;;;5009684;28;20409;-72
2021/01/25 11:32:20;;;;;;;24.60;15.37;;;5.30;46.90;;;;;;5009520;28;20413;-74
2021/01/25 11:34:46;;;;;;;23.30;15.30;;;5.20;44.70;;;;;;5010598;28;20401;-73
2021/01/25 11:37:12;;;;;;;27.65;15.07;;;5.10;46.50;;;;;;5011158;28;20487;-72
2021/01/25 11:39:40;;;;;;;18.00;12.75;;;5.20;46.50;;;;;;5009030;28;20405;-73
2021/01/25 11:42:05;;;;;;;25.23;13.88;;;5.30;44.00;;;;;;5011429;28;20437;-71
2021/01/25 11:44:31;;;;;;;23.90;13.93;;;5.30;47.10;;;;;;5010836;28;20879;-72
2021/01/25 11:46:56;;;;;;;23.30;13.90;;;5.30;44.20;;;;;;5009256;28;20778;-71
2021/01/25 11:49:22;;;;;;;17.30;12.77;;;5.50;43.70;;;;;;5008329;28;20770;-72
2021/01/25 11:51:48;;;;;;;23.08;11.90;;;5.50;42.40;;;;;;5009201;28;20408;-71
2021/01/25 11:54:14;;;;;;;20.67;12.00;;;5.70;39.30;;;;;;5011141;28;20420;-71
2021/01/25 11:56:40;;;;;;;24.02;12.88;;;5.60;40.10;;;;;;5011120;28;20500;-71
2021/01/25 11:59:06;;;;;;;23.90;12.70;;;5.50;40.30;;;;;;5008202;28;20515;-73
2021/01/25 12:01:32;;;;;;;29.20;14.50;;;5.40;40.60;;;;;;5010680;28;20408;-71
2021/01/25 12:03:58;;;;;;;30.60;15.80;;;5.30;40.40;;;;;;5011453;28;20389;-73
2021/01/25 12:06:23;;;;;;;31.23;16.30;;;5.30;40.70;;;;;;5010684;28;20823;-72
2021/01/25 12:08:49;;;;;;;37.50;16.73;;;5.20;41.20;;;;;;5009737;28;20396;-72
2021/01/25 12:11:15;;;;;;;35.53;16.90;;;5.00;41.00;;;;;;5009193;28;20492;-72
2021/01/25 12:13:40;;;;;;;41.75;18.02;;;4.90;41.60;;;;;;5009444;28;20456;-72
2021/01/25 12:16:07;;;;;;;39.83;19.77;;;4.80;41.90;;;;;;5010360;28;20409;-74
2021/01/25 12:18:32;;;;;;;38.42;19.95;;;4.80;44.40;;;;;;5011051;28;20396;-73
2021/01/25 12:20:58;;;;;;;44.43;22.00;;;5.10;43.70;;;;;;5009616;28;20739;-72
2021/01/25 12:23:24;;;;;;;48.80;23.80;;;5.10;44.20;;;;;;5009653;28;20413;-76
2021/01/25 12:25:50;;;;;;;53.25;25.00;;;5.10;43.30;;;;;;5009827;28;20459;-75
2021/01/25 12:28:16;;;;;;;53.78;23.63;;;5.10;42.30;;;;;;5010781;28;20468;-74
2021/01/25 12:30:41;;;;;;;49.88;22.50;;;5.30;40.20;;;;;;5010226;28;20499;-73
2021/01/25 12:33:07;;;;;;;45.33;22.87;;;5.40;39.50;;;;;;5010625;28;20773;-73
2021/01/25 12:35:33;;;;;;;49.17;22.38;;;5.30;40.40;;;;;;5009946;28;20412;-71
2021/01/25 12:37:59;;;;;;;51.25;22.80;;;5.30;39.20;;;;;;5011367;28;20434;-76
2021/01/25 12:40:25;;;;;;;41.85;17.42;;;5.50;40.60;;;;;;5006312;28;20404;-78
2021/01/25 12:42:52;;;;;;;46.30;19.77;;;5.30;37.70;;;;;;5009381;28;20419;-74
2021/01/25 12:45:19;;;;;;;36.22;16.48;;;5.10;39.50;;;;;;5010311;28;20401;-74